Time;durP1;ratioP1;P1;durP2;ratioP2;P2;SDS_P1;SDS_P2;PMS_P1;PMS_P2;Temp;Humidity;BMP_temperature;BMP_pressure;BME280_temperature;BME280_humidity;BME280_pressure;Samples;Min_cycle;Max_cycle;Signal;HPM_P1;HPM_P2
2023/01/07 00:01:07;;;;;;;9.15;5.90;;;;;;;9.15;100.00;101532.81;5040064;28;20128;-74
2023/01/07 00:03:33;;;;;;;9.25;5.93;;;;;;;9.12;100.00;101543.81;5013496;28;20037;-72
2023/01/07 00:06:07;;;;;;;11.10;6.38;;;;;;;9.09;100.00;101531.31;5030122;28;20362;-72
2023/01/07 00:08:35;;;;;;;9.40;6.40;;;;;;;9.09;100.00;101535.84;5030118;28;20033;-72
2023/01/07 00:11:01;;;;;;;13.35;5.93;;;;;;;9.09;100.00;101531.31;5030167;28;20021;-72
2023/01/07 00:13:27;;;;;;;16.23;6.32;;;;;;;9.09;100.00;101520.47;5030075;28;20503;-72
2023/01/07 00:16:00;;;;;;;10.98;6.75;;;;;;;9.06;100.00;101525.16;5047484;28;20041;-72
2023/01/07 00:18:26;;;;;;;10.15;6.32;;;;;;;9.04;100.00;101529.78;5030560;28;20087;-72
2023/01/07 00:20:55;;;;;;;12.98;7.28;;;;;;;9.03;100.00;101519.91;5028599;28;20465;-73
2023/01/07 00:23:23;;;;;;;12.23;7.07;;;;;;;9.03;100.00;101525.34;5029996;28;20041;-72
2023/01/07 00:25:49;;;;;;;11.45;6.72;;;;;;;9.04;100.00;101521.66;5029964;28;20408;-72
2023/01/07 00:28:14;;;;;;;11.38;7.22;;;;;;;9.03;100.00;101523.50;5030863;28;20037;-72
2023/01/07 00:30:39;;;;;;;11.23;7.38;;;;;;;9.06;100.00;101517.03;5029680;28;20075;-72
2023/01/07 00:33:06;;;;;;;9.80;6.38;;;;;;;9.08;100.00;101506.94;5027873;28;20033;-71
2023/01/07 00:35:33;;;;;;;11.55;7.85;;;;;;;9.07;100.00;101506.06;5049430;28;20089;-72
2023/01/07 00:37:58;;;;;;;12.75;7.40;;;;;;;9.07;100.00;101505.19;5049333;28;20090;-73
2023/01/07 00:40:24;;;;;;;11.70;7.35;;;;;;;9.03;100.00;101501.78;5031378;28;20647;-71
2023/01/07 00:43:04;;;;;;;13.73;7.88;;;;;;;9.00;100.00;101499.25;5033373;28;20116;-71
2023/01/07 00:45:34;;;;;;;13.50;8.18;;;;;;;8.96;100.00;101494.94;5032286;28;20037;-72
2023/01/07 00:48:01;;;;;;;12.30;7.40;;;;;;;8.91;100.00;101492.50;5029315;28;20492;-72
2023/01/07 00:50:32;;;;;;;14.18;8.68;;;;;;;8.88;100.00;101491.78;5030132;28;20029;-71
2023/01/07 00:52:58;;;;;;;12.43;7.75;;;;;;;8.86;100.00;101482.81;5037527;28;20029;-75
2023/01/07 00:55:24;;;;;;;20.60;8.55;;;;;;;8.81;100.00;101479.50;5049613;28;20546;-72
2023/01/07 00:57:50;;;;;;;12.82;8.43;;;;;;;8.79;100.00;101476.00;5048954;28;20029;-73
2023/01/07 01:00:18;;;;;;;16.50;9.48;;;;;;;8.78;100.00;101480.56;5032960;28;20106;-72
2023/01/07 01:02:45;;;;;;;15.25;9.18;;;;;;;8.81;100.00;101471.34;5029276;28;20120;-72
2023/01/07 01:05:10;;;;;;;18.17;10.20;;;;;;;8.79;100.00;101466.03;5029343;28;20040;-72
2023/01/07 01:07:36;;;;;;;13.88;8.65;;;;;;;8.79;100.00;101467.88;5012654;28;20033;-72
2023/01/07 01:10:03;;;;;;;21.38;9.18;;;;;;;8.73;100.00;101463.66;5028835;28;20033;-72
2023/01/07 01:12:28;;;;;;;15.88;8.48;;;;;;;8.68;100.00;101465.75;5045817;28;20040;-72
2023/01/07 01:14:54;;;;;;;15.52;8.27;;;;;;;8.71;100.00;101461.97;5030588;28;20112;-72
2023/01/07 01:17:21;;;;;;;11.35;8.25;;;;;;;8.67;100.00;101454.03;5029091;28;20037;-72
2023/01/07 01:19:46;;;;;;;12.80;7.95;;;;;;;8.65;100.00;101450.50;5030497;28;20584;-72
2023/01/07 01:22:12;;;;;;;12.18;7.57;;;;;;;8.64;100.00;101454.19;5028705;28;20121;-72
2023/01/07 01:24:37;;;;;;;12.75;7.47;;;;;;;8.65;100.00;101452.34;5030358;28;20044;-72
2023/01/07 01:27:03;;;;;;;15.82;8.25;;;;;;;8.64;100.00;101446.03;5012482;28;20084;-72
2023/01/07 01:29:28;;;;;;;10.32;7.38;;;;;;;8.65;100.00;101446.91;5030060;28;20041;-72
2023/01/07 01:31:54;;;;;;;14.00;7.22;;;;;;;8.62;100.00;101450.66;5028876;28;20025;-72
2023/01/07 01:34:19;;;;;;;11.55;7.32;;;;;;;8.60;100.00;101438.16;5028897;28;20124;-72
2023/01/07 01:36:45;;;;;;;10.68;7.00;;;;;;;8.57;100.00;101449.16;5028988;28;20130;-72
2023/01/07 01:39:10;;;;;;;11.27;7.43;;;;;;;8.58;100.00;101443.69;5029570;28;20038;-72
2023/01/07 01:41:37;;;;;;;11.25;7.43;;;;;;;8.55;100.00;101432.13;5028928;28;20377;-72
2023/01/07 01:44:28;;;;;;;9.07;6.78;;;;;;;8.54;100.00;101442.09;5027986;28;20105;-72
2023/01/07 01:46:53;;;;;;;10.38;6.38;;;;;;;8.51;100.00;101444.97;5028514;28;20091;-72
2023/01/07 01:49:30;;;;;;;12.60;6.78;;;;;;;8.50;100.00;101443.22;5019531;28;20464;-72
2023/01/07 01:52:08;;;;;;;13.88;6.32;;;;;;;8.50;100.00;101447.75;5048437;28;20033;-72
2023/01/07 01:54:33;;;;;;;12.20;6.90;;;;;;;8.50;100.00;101442.34;5035226;28;20624;-72
2023/01/07 01:57:02;;;;;;;13.43;6.28;;;;;;;8.48;100.00;101447.81;5030120;28;20033;-72
2023/01/07 01:59:33;;;;;;;8.50;6.07;;;;;;;8.47;100.00;101445.22;5038084;28;20048;-72
2023/01/07 02:02:02;;;;;;;9.82;6.53;;;;;;;8.45;100.00;101450.72;5028115;28;20072;-72
2023/01/07 02:04:29;;;;;;;10.60;6.57;;;;;;;8.46;100.00;101443.47;5029817;28;20453;-71
2023/01/07 02:07:13;;;;;;;8.82;6.40;;;;;;;8.44;100.00;101451.69;5011726;28;20038;-72
2023/01/07 02:09:43;;;;;;;11.98;6.82;;;;;;;8.43;100.00;101445.38;5011938;28;20034;-72
2023/01/07 02:12:41;;;;;;;14.70;7.78;;;;;;;8.43;100.00;101441.78;5027690;28;20033;-71
2023/01/07 02:15:25;;;;;;;12.45;6.90;;;;;;;8.44;100.00;101451.69;5026847;28;20049;-72
2023/01/07 02:18:09;;;;;;;9.30;6.45;;;;;;;8.43;100.00;101445.38;5029105;28;20049;-73
2023/01/07 02:20:59;;;;;;;12.73;6.97;;;;;;;8.41;100.00;101441.00;5030222;28;20559;-72
2023/01/07 02:24:15;;;;;;;11.13;6.50;;;;;;;8.39;100.00;101442.91;5047926;28;20125;-71
2023/01/07 02:26:59;;;;;;;8.13;5.30;;;;;;;8.32;100.00;101436.03;5028903;28;20069;-72
2023/01/07 02:29:44;;;;;;;10.35;6.82;;;;;;;8.28;100.00;101440.75;5015731;28;20029;-72
2023/01/07 02:32:15;;;;;;;15.90;7.18;;;;;;;8.28;100.00;101440.75;5012263;28;20037;-72
2023/01/07 02:34:55;;;;;;;13.07;6.55;;;;;;;8.24;100.00;101444.56;5011164;28;20436;-71
2023/01/07 02:37:44;;;;;;;10.40;6.03;;;;;;;8.24;100.00;101449.13;5028825;28;20100;-71
2023/01/07 02:40:27;;;;;;;10.43;5.90;;;;;;;8.22;100.00;101442.91;5028642;28;20080;-71
2023/01/07 02:43:15;;;;;;;12.63;6.13;;;;;;;8.22;100.00;101441.06;5027788;28;20671;-72
2023/01/07 02:45:55;;;;;;;10.27;6.18;;;;;;;8.20;100.00;101426.72;5040473;28;20085;-72
2023/01/07 02:48:21;;;;;;;13.45;6.38;;;;;;;8.23;100.00;101429.28;5045675;28;20036;-75
2023/01/07 02:50:47;;;;;;;8.82;6.60;;;;;;;8.20;100.00;101432.13;5029375;28;20108;-72
2023/01/07 02:53:17;;;;;;;10.60;6.38;;;;;;;8.22;100.00;101424.81;5027496;28;20108;-72
2023/01/07 02:56:01;;;;;;;8.27;5.22;;;;;;;8.23;100.00;101425.69;5027449;28;20476;-72
2023/01/07 02:58:54;;;;;;;11.32;6.00;;;;;;;8.20;100.00;101424.00;5011067;28;20377;-72
2023/01/07 03:01:23;;;;;;;;;;;;;;;8.22;100.00;101430.22;5029753;28;20044;-73
2023/01/07 03:03:54;;;;;;;10.75;6.40;;;;;;;8.24;100.00;101422.88;5048770;28;19917;-72
2023/01/07 03:06:29;;;;;;;11.63;5.70;;;;;;;8.28;100.00;101421.75;5046715;28;20029;-72
2023/01/07 03:09:20;;;;;;;10.50;5.85;;;;;;;8.33;100.00;101416.97;5027589;28;20737;-71
2023/01/07 03:12:08;;;;;;;8.63;5.53;;;;;;;8.35;100.00;101401.50;5014609;28;20063;-72
2023/01/07 03:14:43;;;;;;;9.68;6.28;;;;;;;8.40;100.00;101404.88;5036876;28;20038;-73
2023/01/07 03:17:14;;;;;;;11.20;5.88;;;;;;;8.46;100.00;101398.25;5028333;28;20040;-74
2023/01/07 03:19:44;;;;;;;8.38;6.13;;;;;;;8.49;100.00;101391.78;5027379;28;20033;-72
2023/01/07 03:22:12;;;;;;;9.45;5.75;;;;;;;8.49;100.00;101392.66;5028357;28;20136;-71
2023/01/07 03:24:39;;;;;;;8.88;5.72;;;;;;;8.51;100.00;101393.44;5028442;28;20044;-73
2023/01/07 03:27:07;;;;;;;12.23;5.05;;;;;;;8.53;100.00;101387.91;5028340;28;20048;-72
2023/01/07 03:29:34;;;;;;;7.90;5.10;;;;;;;8.57;100.00;101376.81;5010472;28;20463;-74
2023/01/07 03:32:10;;;;;;;12.00;5.43;;;;;;;8.60;100.00;101379.38;5026844;28;20056;-72
2023/01/07 03:34:37;;;;;;;7.28;4.90;;;;;;;8.61;100.00;101369.38;5010895;28;20128;-71
2023/01/07 03:37:08;;;;;;;7.03;4.97;;;;;;;8.65;100.00;101377.28;5026914;28;20396;-71
2023/01/07 03:39:37;;;;;;;9.05;5.65;;;;;;;8.63;100.00;101370.19;5026578;28;20513;-72
2023/01/07 03:44:50;;;;;;;7.80;4.93;;;;;;;8.62;100.00;101372.00;5031665;28;20040;-72
2023/01/07 03:47:17;;;;;;;6.60;4.18;;;;;;;8.64;100.00;101374.66;5027068;28;20504;-72
2023/01/07 03:49:42;;;;;;;7.25;4.75;;;;;;;8.61;100.00;101359.41;5010963;28;20029;-72
2023/01/07 03:52:08;;;;;;;7.00;4.70;;;;;;;8.63;100.00;101356.63;5026888;28;20072;-71
2023/01/07 03:54:33;;;;;;;6.60;4.75;;;;;;;8.63;100.00;101349.38;5026741;28;20029;-72
2023/01/07 03:57:00;;;;;;;5.57;4.72;;;;;;;8.67;100.00;101353.66;5033406;28;20446;-72
2023/01/07 03:59:25;;;;;;;7.32;4.57;;;;;;;8.67;100.00;101344.63;5042155;28;20045;-72
2023/01/07 04:01:51;;;;;;;9.05;4.85;;;;;;;8.74;100.00;101347.88;5030569;28;20029;-72
2023/01/07 04:04:17;;;;;;;10.10;4.90;;;;;;;8.77;100.00;101348.59;5030617;28;20030;-71
2023/01/07 04:06:43;;;;;;;7.32;4.25;;;;;;;8.79;100.00;101340.34;5014011;28;20473;-72
2023/01/07 04:09:08;;;;;;;8.13;4.70;;;;;;;8.82;100.00;101342.91;5013593;28;20035;-73
2023/01/07 04:11:34;;;;;;;5.93;4.18;;;;;;;8.81;100.00;101336.59;5049998;28;20115;-74
2023/01/07 04:14:00;;;;;;;7.63;3.92;;;;;;;8.81;100.00;101330.28;5041479;28;20033;-72
2023/01/07 04:16:26;;;;;;;8.93;4.55;;;;;;;8.81;100.00;101335.72;5032829;28;20032;-72
2023/01/07 04:18:53;;;;;;;6.90;4.05;;;;;;;8.81;100.00;101330.28;5032775;28;20279;-71
2023/01/07 04:21:19;;;;;;;5.25;3.60;;;;;;;8.83;100.00;101323.81;5050245;28;20523;-71
2023/01/07 04:23:44;;;;;;;6.43;4.28;;;;;;;8.85;100.00;101319.16;5049893;28;20384;-73
2023/01/07 04:26:10;;;;;;;7.00;4.05;;;;;;;8.87;100.00;101310.97;5051455;28;20480;-72
2023/01/07 04:28:37;;;;;;;7.55;4.00;;;;;;;8.88;100.00;101296.41;5034952;28;20033;-72
2023/01/07 04:31:02;;;;;;;5.75;3.92;;;;;;;8.86;100.00;101306.47;5032196;28;20079;-74
2023/01/07 04:33:29;;;;;;;6.60;3.97;;;;;;;8.83;100.00;101304.81;5047969;28;20033;-72
2023/01/07 04:35:56;;;;;;;8.50;3.58;;;;;;;8.82;100.00;101300.38;5051628;28;20098;-74
2023/01/07 04:38:22;;;;;;;6.57;3.38;;;;;;;8.84;100.00;101306.56;5049871;28;20028;-72
2023/01/07 04:40:48;;;;;;;6.25;3.70;;;;;;;8.81;100.00;101301.34;5038884;28;20072;-72
2023/01/07 04:43:14;;;;;;;5.47;4.03;;;;;;;8.80;100.00;101293.28;5013327;28;20029;-73
2023/01/07 04:45:39;;;;;;;5.15;3.72;;;;;;;8.78;100.00;101297.91;5029747;28;20040;-73
2023/01/07 04:48:06;;;;;;;5.78;4.22;;;;;;;8.72;100.00;101291.03;5013210;28;20056;-72
2023/01/07 04:50:31;;;;;;;5.63;3.63;;;;;;;8.67;100.00;101288.56;5029380;28;20754;-72
2023/01/07 04:52:57;;;;;;;6.68;3.55;;;;;;;8.68;100.00;101294.88;5029682;28;20361;-72
2023/01/07 04:55:23;;;;;;;5.25;3.65;;;;;;;8.66;100.00;101291.34;5029641;28;20529;-72
2023/01/07 04:57:49;;;;;;;4.88;3.58;;;;;;;8.67;100.00;101282.25;5029160;28;20034;-73
2023/01/07 05:00:16;;;;;;;4.25;3.38;;;;;;;8.70;100.00;101290.22;5029183;28;20057;-72
2023/01/07 05:02:44;;;;;;;5.28;3.40;;;;;;;8.72;100.00;101282.88;5029375;28;20366;-71
2023/01/07 05:05:11;;;;;;;6.07;3.08;;;;;;;8.73;100.00;101273.78;5029251;28;20374;-72
2023/01/07 05:07:37;;;;;;;3.85;3.35;;;;;;;8.73;100.00;101272.91;5028588;28;20032;-72
2023/01/07 05:10:04;;;;;;;6.30;3.70;;;;;;;8.76;100.00;101280.84;5028886;28;20120;-72
2023/01/07 05:12:33;;;;;;;6.03;3.30;;;;;;;8.76;100.00;101275.41;5029115;28;20033;-73
2023/01/07 05:14:59;;;;;;;5.45;3.70;;;;;;;8.78;100.00;101270.78;5028811;28;20037;-72
2023/01/07 05:17:25;;;;;;;5.68;3.50;;;;;;;8.78;100.00;101273.50;5023045;28;20051;-72
2023/01/07 05:19:51;;;;;;;9.75;3.88;;;;;;;8.73;100.00;101267.47;5048858;28;20024;-72
2023/01/07 05:22:17;;;;;;;8.05;3.40;;;;;;;8.73;100.00;101264.75;5039980;28;20040;-72
2023/01/07 05:24:42;;;;;;;5.28;3.55;;;;;;;8.69;100.00;101262.22;5012245;28;20401;-73
2023/01/07 05:27:08;;;;;;;4.53;3.47;;;;;;;8.66;100.00;101256.97;5028757;28;20037;-72
2023/01/07 05:29:35;;;;;;;4.55;3.42;;;;;;;8.68;100.00;101260.47;5012048;28;20480;-72
2023/01/07 05:32:00;;;;;;;4.50;3.30;;;;;;;8.71;100.00;101261.25;5034416;28;20070;-73
2023/01/07 05:34:26;;;;;;;4.10;3.53;;;;;;;8.68;100.00;101252.34;5049146;28;20166;-73
2023/01/07 05:36:52;;;;;;;6.32;3.38;;;;;;;8.67;100.00;101253.31;5049936;28;20413;-71
2023/01/07 05:39:17;;;;;;;5.25;2.83;;;;;;;8.71;100.00;101263.97;5048234;28;20044;-71
2023/01/07 05:41:43;;;;;;;6.18;2.67;;;;;;;8.69;100.00;101258.63;5017305;28;20044;-72
2023/01/07 05:44:09;;;;;;;4.25;2.70;;;;;;;8.71;100.00;101258.53;5014070;28;20033;-72
2023/01/07 05:46:34;;;;;;;4.97;2.67;;;;;;;8.69;100.00;101254.09;5031086;28;20107;-72
2023/01/07 05:49:00;;;;;;;6.95;3.85;;;;;;;8.72;100.00;101249.44;5049658;28;20137;-72
2023/01/07 05:51:25;;;;;;;4.70;3.00;;;;;;;8.70;100.00;101244.09;5050311;28;20146;-71
2023/01/07 05:53:50;;;;;;;8.48;3.45;;;;;;;8.74;100.00;101252.94;5031654;28;20029;-72
2023/01/07 05:56:16;;;;;;;3.05;2.47;;;;;;;8.74;100.00;101247.53;5028561;28;20041;-72
2023/01/07 05:58:41;;;;;;;4.35;2.60;;;;;;;8.73;100.00;101243.06;5028088;28;20047;-71
2023/01/07 06:01:06;;;;;;;7.55;3.15;;;;;;;8.70;100.00;101244.09;5045205;28;20029;-72
2023/01/07 06:03:32;;;;;;;2.72;2.38;;;;;;;8.75;100.00;101242.00;5028320;28;20140;-72
2023/01/07 06:05:57;;;;;;;5.25;2.60;;;;;;;8.76;100.00;101237.44;5029912;28;20025;-72
2023/01/07 06:08:23;;;;;;;4.10;2.25;;;;;;;8.79;100.00;101229.13;5034925;28;20088;-72
2023/01/07 06:10:48;;;;;;;4.10;2.53;;;;;;;8.78;100.00;101230.09;5048060;28;20021;-72
2023/01/07 06:13:13;;;;;;;3.30;2.42;;;;;;;8.76;100.00;101227.47;5041073;28;20112;-72
2023/01/07 06:15:39;;;;;;;3.15;2.20;;;;;;;8.80;100.00;101225.44;5042355;28;20533;-72
2023/01/07 06:18:04;;;;;;;4.68;2.42;;;;;;;8.81;100.00;101221.75;5033007;28;20110;-72
2023/01/07 06:20:33;;;;;;;3.28;2.28;;;;;;;8.81;100.00;101216.34;5027189;28;20532;-72
2023/01/07 06:23:00;;;;;;;3.00;2.38;;;;;;;8.80;100.00;101220.91;5027742;28;20104;-72
2023/01/07 06:25:25;;;;;;;5.07;2.42;;;;;;;8.81;100.00;101217.25;5029418;28;20042;-71
2023/01/07 06:27:50;;;;;;;3.42;2.47;;;;;;;8.84;100.00;101210.75;5029185;28;20056;-72
2023/01/07 06:30:16;;;;;;;3.35;2.05;;;;;;;8.87;100.00;101216.00;5011270;28;20125;-72
2023/01/07 06:32:43;;;;;;;4.80;2.50;;;;;;;8.87;100.00;101202.44;5011263;28;20499;-72
2023/01/07 06:35:10;;;;;;;3.47;2.20;;;;;;;8.87;100.00;101208.72;5029063;28;20083;-72
2023/01/07 06:37:36;;;;;;;10.38;2.00;;;;;;;8.85;100.00;101202.50;5027535;28;20091;-74
2023/01/07 06:40:01;;;;;;;4.60;2.10;;;;;;;8.85;100.00;101204.34;5028661;28;20144;-72
2023/01/07 06:42:27;;;;;;;3.67;1.90;;;;;;;8.85;100.00;101196.19;5029233;28;20506;-71
2023/01/07 06:44:52;;;;;;;2.03;1.83;;;;;;;8.81;100.00;101192.81;5028666;28;20108;-72
2023/01/07 06:47:18;;;;;;;2.15;1.95;;;;;;;8.82;100.00;101199.13;5027323;28;20120;-73
2023/01/07 06:49:43;;;;;;;9.15;2.00;;;;;;;8.79;100.00;101196.56;5027556;28;20054;-73
2023/01/07 06:52:08;;;;;;;3.38;2.00;;;;;;;8.80;100.00;101199.19;5027254;28;20033;-71
2023/01/07 06:54:34;;;;;;;1.88;1.77;;;;;;;8.79;100.00;101191.16;5027211;28;20464;-72
2023/01/07 06:56:59;;;;;;;2.42;1.98;;;;;;;8.79;100.00;101193.88;5028262;28;20037;-72
2023/01/07 06:59:24;;;;;;;4.35;2.30;;;;;;;8.79;99.96;101192.03;5027315;28;20511;-72
2023/01/07 07:01:50;;;;;;;2.70;1.65;;;;;;;8.78;99.69;101189.41;5014810;28;20587;-72
2023/01/07 07:04:15;;;;;;;2.13;1.92;;;;;;;8.79;100.00;101193.88;5048479;28;20480;-72
2023/01/07 07:06:40;;;;;;;4.20;2.28;;;;;;;8.77;99.72;101188.53;5037817;28;20096;-71
2023/01/07 07:09:06;;;;;;;3.33;2.08;;;;;;;8.76;99.89;101172.34;5028417;28;20462;-71
2023/01/07 07:11:31;;;;;;;1.98;1.80;;;;;;;8.73;99.64;101176.13;5028449;28;20116;-72
2023/01/07 07:13:58;;;;;;;2.45;1.85;;;;;;;8.76;99.07;101173.19;5028248;28;20028;-74
2023/01/07 07:16:24;;;;;;;4.28;2.03;;;;;;;8.76;99.15;101164.19;5027822;28;20045;-71
2023/01/07 07:18:51;;;;;;;2.08;1.65;;;;;;;8.73;98.22;101159.84;5028451;28;20389;-73
2023/01/07 07:21:16;;;;;;;4.35;1.90;;;;;;;8.74;98.45;101160.72;5028294;28;20033;-72
2023/01/07 07:23:41;;;;;;;3.58;1.83;;;;;;;8.74;97.71;101158.88;5029317;28;20041;-72
2023/01/07 07:26:07;;;;;;;1.70;1.60;;;;;;;8.72;98.09;101155.41;5027080;28;20096;-72
2023/01/07 07:28:32;;;;;;;4.57;2.35;;;;;;;8.68;98.05;101159.25;5027859;28;20017;-72
2023/01/07 07:30:57;;;;;;;3.08;2.00;;;;;;;8.67;97.75;101169.22;5030324;28;20064;-72
2023/01/07 07:33:23;;;;;;;3.75;1.92;;;;;;;8.65;97.76;101163.00;5048018;28;20029;-72
2023/01/07 07:35:48;;;;;;;2.97;2.15;;;;;;;8.65;98.01;101164.84;5050585;28;20120;-71
2023/01/07 07:38:16;;;;;;;4.13;1.67;;;;;;;8.58;98.13;101156.22;5034018;28;20075;-71
2023/01/07 07:40:41;;;;;;;5.28;2.10;;;;;;;8.57;97.92;101159.88;5047332;28;20053;-72
2023/01/07 07:43:07;;;;;;;3.17;1.90;;;;;;;8.55;98.11;101156.38;5032041;28;20033;-73
2023/01/07 07:45:32;;;;;;;3.25;1.98;;;;;;;8.55;98.13;101156.38;5031721;28;20496;-72
2023/01/07 07:47:57;;;;;;;5.57;2.08;;;;;;;8.58;97.73;101152.59;5030836;28;20036;-72
2023/01/07 07:50:23;;;;;;;2.78;1.55;;;;;;;8.59;97.31;101144.41;5030867;28;20041;-73
2023/01/07 07:52:48;;;;;;;2.60;1.80;;;;;;;8.61;97.36;101136.16;5031998;28;20120;-72
2023/01/07 07:55:13;;;;;;;4.53;2.00;;;;;;;8.61;96.96;101137.03;5044154;28;20045;-71
2023/01/07 07:57:39;;;;;;;3.28;1.77;;;;;;;8.61;97.67;101139.75;5051725;28;20074;-72
2023/01/07 08:00:05;;;;;;;2.65;1.58;;;;;;;8.65;97.41;101135.00;5037006;28;20060;-71
2023/01/07 08:02:37;;;;;;;2.80;1.83;;;;;;;8.62;97.55;101133.34;5030428;28;20044;-72
2023/01/07 08:05:03;;;;;;;4.63;2.17;;;;;;;8.65;96.79;101124.16;5030476;28;20124;-71
2023/01/07 08:07:28;;;;;;;2.45;1.77;;;;;;;8.63;96.42;101121.56;5030075;28;20036;-73
2023/01/07 08:09:53;;;;;;;2.13;1.48;;;;;;;8.62;96.90;101122.50;5031918;28;20095;-71
2023/01/07 08:12:19;;;;;;;1.90;1.70;;;;;;;8.62;96.53;101116.19;5047641;28;20094;-72
2023/01/07 08:14:44;;;;;;;2.58;1.67;;;;;;;8.63;96.66;101113.41;5022944;28;20045;-72
2023/01/07 08:17:09;;;;;;;3.65;1.77;;;;;;;8.63;96.33;101115.25;5037978;28;20028;-71
2023/01/07 08:19:35;;;;;;;3.17;1.60;;;;;;;8.62;96.46;101122.50;5049932;28;20044;-71
2023/01/07 08:22:00;;;;;;;2.40;1.70;;;;;;;8.60;97.23;101120.84;5050983;28;20116;-71
2023/01/07 08:24:25;;;;;;;2.08;1.70;;;;;;;8.62;96.31;101117.06;5051749;28;20109;-71
2023/01/07 08:26:54;;;;;;;6.13;2.70;;;;;;;8.62;97.08;101108.94;5030894;28;20030;-72
2023/01/07 08:29:20;;;;;;;6.72;1.98;;;;;;;8.68;96.91;101115.84;5032050;28;20108;-72
2023/01/07 08:31:46;;;;;;;3.95;1.90;;;;;;;8.70;96.51;101103.06;5031247;28;20040;-75
2023/01/07 08:34:11;;;;;;;2.80;2.00;;;;;;;8.72;96.46;101108.38;5029574;28;20041;-71
2023/01/07 08:36:37;;;;;;;2.30;1.67;;;;;;;8.79;95.79;101113.34;5030965;28;20092;-72
2023/01/07 08:39:03;;;;;;;1.60;1.50;;;;;;;8.82;95.60;101113.19;5031482;28;20116;-71
2023/01/07 08:41:28;;;;;;;4.45;1.75;;;;;;;8.85;95.27;101101.25;5030607;28;20132;-75
2023/01/07 08:43:54;;;;;;;4.25;1.63;;;;;;;8.91;94.83;101107.19;5030376;28;20108;-72
2023/01/07 08:46:19;;;;;;;3.30;1.88;;;;;;;8.92;94.76;101092.66;5030607;28;20116;-72
2023/01/07 08:48:44;;;;;;;2.60;1.67;;;;;;;8.97;94.93;101107.78;5029497;28;20029;-71
2023/01/07 08:51:10;;;;;;;3.33;1.50;;;;;;;8.98;93.75;101095.94;5030896;28;20036;-72
2023/01/07 08:53:35;;;;;;;4.20;1.80;;;;;;;8.99;94.84;101103.97;5012849;28;20464;-72
2023/01/07 08:56:00;;;;;;;1.75;1.63;;;;;;;9.00;94.11;101092.19;5030207;28;20026;-72
2023/01/07 08:58:26;;;;;;;3.53;1.65;;;;;;;9.03;93.29;101099.25;5029836;28;20033;-71
2023/01/07 09:00:52;;;;;;;2.63;1.55;;;;;;;9.05;93.83;101097.34;5030380;28;20030;-71
2023/01/07 09:03:17;;;;;;;3.35;1.70;;;;;;;9.07;92.79;101093.53;5030314;28;20049;-72
2023/01/07 09:05:45;;;;;;;2.85;1.83;;;;;;;9.08;92.82;101098.00;5030709;28;20052;-71
2023/01/07 09:08:10;;;;;;;2.13;1.63;;;;;;;9.11;92.61;101097.81;5030411;28;20465;-72
2023/01/07 09:10:36;;;;;;;2.20;1.80;;;;;;;9.13;94.15;101094.97;5028925;28;20053;-72
2023/01/07 09:13:01;;;;;;;5.15;1.90;;;;;;;9.14;93.09;101080.47;5030446;28;20540;-71
2023/01/07 09:15:26;;;;;;;2.75;1.80;;;;;;;9.15;92.09;101079.50;5041163;28;20033;-71
2023/01/07 09:17:52;;;;;;;5.00;1.85;;;;;;;9.18;92.55;101074.72;5018711;28;20069;-72
2023/01/07 09:20:18;;;;;;;6.68;1.98;;;;;;;9.22;92.31;101074.53;5030406;28;20069;-72
2023/01/07 09:22:43;;;;;;;2.00;1.67;;;;;;;9.24;91.44;101073.50;5028552;28;20083;-71
2023/01/07 09:25:08;;;;;;;2.90;1.63;;;;;;;9.28;92.24;101077.75;5030215;28;20120;-72
2023/01/07 09:27:34;;;;;;;4.55;1.52;;;;;;;9.30;91.60;101067.66;5012055;28;20068;-71
2023/01/07 09:30:00;;;;;;;3.17;2.00;;;;;;;9.33;91.75;101066.59;5028392;28;20124;-73
2023/01/07 09:32:28;;;;;;;2.20;1.98;;;;;;;9.35;91.74;101072.78;5029903;28;20118;-72
2023/01/07 09:34:54;;;;;;;2.40;1.50;;;;;;;9.37;90.54;101059.97;5030705;28;20036;-71
2023/01/07 09:37:20;;;;;;;2.92;1.48;;;;;;;9.41;90.77;101061.53;5029879;28;20033;-73
2023/01/07 09:39:45;;;;;;;2.25;1.60;;;;;;;9.46;89.59;101051.25;5028481;28;20505;-72
2023/01/07 09:42:30;;;;;;;7.28;2.20;;;;;;;9.49;88.83;101048.34;5029682;28;20063;-73
2023/01/07 09:44:58;;;;;;;3.17;2.33;;;;;;;9.54;89.05;101045.31;5028780;28;20392;-74
2023/01/07 09:47:28;;;;;;;3.90;3.00;;;;;;;9.57;88.59;101034.28;5028539;28;20037;-71
2023/01/07 09:49:57;;;;;;;4.72;3.10;;;;;;;9.59;88.80;101041.34;5012287;28;20041;-71
2023/01/07 09:52:36;;;;;;;3.47;2.28;;;;;;;9.63;88.46;101037.44;5029529;28;20022;-73
2023/01/07 09:55:11;;;;;;;2.13;1.60;;;;;;;9.68;87.40;101037.16;5029477;28;20080;-71
2023/01/07 09:57:36;;;;;;;3.53;1.50;;;;;;;9.72;87.57;101030.53;5029273;28;20427;-73
2023/01/07 10:00:09;;;;;;;1.60;1.50;;;;;;;9.79;86.64;101025.56;5031913;28;20034;-71
2023/01/07 10:02:56;;;;;;;1.35;1.20;;;;;;;9.83;87.62;101019.81;5028345;28;20172;-71
2023/01/07 10:05:39;;;;;;;2.72;1.75;;;;;;;9.87;86.79;101020.50;5029363;28;20133;-72
2023/01/07 10:08:20;;;;;;;;;;;;;;;9.89;89.19;101014.00;5029873;28;20145;-75
2023/01/07 10:11:01;;;;;;;1.60;1.50;;;;;;;9.93;86.27;101012.81;5024906;28;20391;-71
2023/01/07 10:13:41;;;;;;;1.80;1.35;;;;;;;9.94;85.27;100992.81;5029645;28;20116;-73
2023/01/07 10:16:39;;;;;;;2.38;1.42;;;;;;;10.00;84.76;100985.22;5031574;28;20034;-73
2023/01/07 10:19:13;;;;;;;1.33;1.20;;;;;;;10.03;85.12;100980.47;5029411;28;20341;-71
2023/01/07 10:21:50;;;;;;;1.30;1.10;;;;;;;10.03;84.15;100972.31;5028957;28;20400;-72
2023/01/07 10:24:19;;;;;;;4.30;1.30;;;;;;;10.06;84.88;100976.66;5027658;28;20041;-71
2023/01/07 10:26:48;;;;;;;3.65;1.23;;;;;;;10.10;83.75;100970.03;5027799;28;20092;-72
2023/01/07 10:29:38;;;;;;;2.28;1.65;;;;;;;10.11;84.01;100963.59;5027700;28;20044;-72
2023/01/07 10:32:13;;;;;;;1.88;1.40;;;;;;;10.13;83.03;100957.09;5042314;28;20037;-71
2023/01/07 10:34:44;;;;;;;3.50;1.35;;;;;;;10.17;83.68;100946.91;5029087;28;20037;-72
2023/01/07 10:37:31;;;;;;;2.13;1.42;;;;;;;10.21;85.16;100945.66;5028822;28;20049;-71
2023/01/07 10:40:21;;;;;;;1.60;1.50;;;;;;;10.25;82.88;100930.94;5028827;28;20523;-71
2023/01/07 10:43:05;;;;;;;1.38;1.27;;;;;;;10.31;82.83;100927.81;5027387;28;20126;-71
2023/01/07 10:45:36;;;;;;;3.72;1.25;;;;;;;10.33;80.78;100925.84;5039589;28;20124;-71
2023/01/07 10:48:20;;;;;;;1.50;1.33;;;;;;;10.34;81.65;100921.25;5034923;28;20550;-72
2023/01/07 10:51:08;;;;;;;0.90;0.90;;;;;;;10.37;80.90;100916.47;5027458;28;20100;-71
2023/01/07 10:54:06;;;;;;;1.33;1.10;;;;;;;10.43;79.43;100909.72;5027462;28;20412;-72
2023/01/07 10:56:36;;;;;;;1.30;1.20;;;;;;;10.44;80.15;100901.50;5026921;28;20042;-71
2023/01/07 10:59:01;;;;;;;1.42;1.33;;;;;;;10.51;80.83;100901.03;5028365;28;20063;-71
2023/01/07 11:01:42;;;;;;;3.05;1.40;;;;;;;10.57;81.31;100903.31;5027331;28;20030;-72
2023/01/07 11:04:13;;;;;;;1.30;1.20;;;;;;;10.60;79.23;100890.38;5027212;28;20574;-72
2023/01/07 11:06:58;;;;;;;1.70;1.60;;;;;;;10.65;81.26;100890.91;5026758;28;20037;-71
2023/01/07 11:09:30;;;;;;;2.10;1.15;;;;;;;10.64;80.57;100894.59;5038511;28;20061;-72
2023/01/07 11:12:01;;;;;;;2.05;1.30;;;;;;;10.68;78.62;100889.81;5043958;28;20172;-71
2023/01/07 11:14:31;;;;;;;1.63;1.13;;;;;;;10.72;77.37;100886.78;5040659;28;20494;-72
2023/01/07 11:17:18;;;;;;;1.58;1.30;;;;;;;10.78;78.99;100885.44;5027357;28;20041;-72
2023/01/07 11:19:47;;;;;;;2.58;1.08;;;;;;;10.82;77.51;100880.63;5027218;28;20553;-72
2023/01/07 11:22:25;;;;;;;1.30;1.10;;;;;;;10.89;78.54;100881.94;5028262;28;20515;-72
2023/01/07 11:24:53;;;;;;;1.52;1.10;;;;;;;10.93;77.08;100870.72;5027023;28;20126;-71
2023/01/07 11:27:22;;;;;;;1.17;1.10;;;;;;;10.93;78.04;100861.69;5039744;28;20400;-71
2023/01/07 11:30:09;;;;;;;2.47;1.40;;;;;;;10.95;78.07;100846.97;5038528;28;20029;-71
2023/01/07 11:32:41;;;;;;;1.83;1.20;;;;;;;10.97;74.83;100838.69;5027545;28;20075;-72
2023/01/07 11:35:14;;;;;;;2.13;1.50;;;;;;;10.98;77.69;100834.97;5028593;28;20068;-72
2023/01/07 11:37:44;;;;;;;1.45;1.10;;;;;;;10.98;75.93;100829.53;5048101;28;20040;-74
2023/01/07 11:40:12;;;;;;;3.15;2.10;;;;;;;10.98;76.42;100834.97;5034292;28;20465;-71